sensor_id;sensor_type;location;lat;lon;timestamp;P1;durP1;ratioP1;P2;durP2;ratioP2
68168;SDS011;54981;50.206;15.978;2022-07-22T00:02:22;14.45;;;10.15;;
68168;SDS011;54981;50.206;15.978;2022-07-22T00:04:47;13.82;;;10.80;;
68168;SDS011;54981;50.206;15.978;2022-07-22T00:07:13;11.98;;;9.50;;
68168;SDS011;54981;50.206;15.978;2022-07-22T00:09:39;14.18;;;9.25;;
68168;SDS011;54981;50.206;15.978;2022-07-22T00:12:04;15.38;;;10.63;;
68168;SDS011;54981;50.206;15.978;2022-07-22T00:14:30;16.20;;;12.23;;
68168;SDS011;54981;50.206;15.978;2022-07-22T00:16:55;13.35;;;11.20;;
68168;SDS011;54981;50.206;15.978;2022-07-22T00:19:21;16.42;;;11.27;;
68168;SDS011;54981;50.206;15.978;2022-07-22T00:21:46;15.30;;;11.15;;
68168;SDS011;54981;50.206;15.978;2022-07-22T00:24:12;16.00;;;10.50;;
68168;SDS011;54981;50.206;15.978;2022-07-22T00:26:37;15.25;;;10.73;;
68168;SDS011;54981;50.206;15.978;2022-07-22T00:29:03;12.70;;;9.48;;
68168;SDS011;54981;50.206;15.978;2022-07-22T00:31:28;14.95;;;11.55;;
68168;SDS011;54981;50.206;15.978;2022-07-22T00:33:55;14.30;;;10.90;;
68168;SDS011;54981;50.206;15.978;2022-07-22T00:36:21;15.20;;;9.98;;
68168;SDS011;54981;50.206;15.978;2022-07-22T00:38:47;12.65;;;10.20;;
68168;SDS011;54981;50.206;15.978;2022-07-22T00:41:12;15.75;;;10.75;;
68168;SDS011;54981;50.206;15.978;2022-07-22T00:46:36;12.20;;;9.75;;
68168;SDS011;54981;50.206;15.978;2022-07-22T00:49:03;13.18;;;9.88;;
68168;SDS011;54981;50.206;15.978;2022-07-22T00:51:30;11.57;;;10.00;;
68168;SDS011;54981;50.206;15.978;2022-07-22T00:53:57;12.35;;;10.77;;
68168;SDS011;54981;50.206;15.978;2022-07-22T00:56:23;13.93;;;10.13;;
68168;SDS011;54981;50.206;15.978;2022-07-22T00:58:50;13.15;;;10.10;;
68168;SDS011;54981;50.206;15.978;2022-07-22T01:01:16;13.25;;;10.20;;
68168;SDS011;54981;50.206;15.978;2022-07-22T01:03:42;12.70;;;10.30;;
68168;SDS011;54981;50.206;15.978;2022-07-22T01:06:08;13.13;;;9.77;;
68168;SDS011;54981;50.206;15.978;2022-07-22T01:08:34;12.57;;;9.93;;
68168;SDS011;54981;50.206;15.978;2022-07-22T01:11:09;11.07;;;9.80;;
68168;SDS011;54981;50.206;15.978;2022-07-22T01:13:39;14.85;;;11.02;;
68168;SDS011;54981;50.206;15.978;2022-07-22T01:16:06;13.95;;;10.60;;
68168;SDS011;54981;50.206;15.978;2022-07-22T01:18:32;12.77;;;10.48;;
68168;SDS011;54981;50.206;15.978;2022-07-22T01:20:59;13.75;;;10.45;;
68168;SDS011;54981;50.206;15.978;2022-07-22T01:23:24;14.55;;;10.63;;
68168;SDS011;54981;50.206;15.978;2022-07-22T01:25:50;13.50;;;11.10;;
68168;SDS011;54981;50.206;15.978;2022-07-22T01:28:15;12.98;;;10.57;;
68168;SDS011;54981;50.206;15.978;2022-07-22T01:30:41;12.77;;;9.40;;
68168;SDS011;54981;50.206;15.978;2022-07-22T01:33:06;15.02;;;10.57;;
68168;SDS011;54981;50.206;15.978;2022-07-22T01:35:32;14.18;;;10.43;;
68168;SDS011;54981;50.206;15.978;2022-07-22T01:37:57;13.75;;;9.90;;
68168;SDS011;54981;50.206;15.978;2022-07-22T01:40:22;13.88;;;9.90;;
68168;SDS011;54981;50.206;15.978;2022-07-22T01:42:48;13.93;;;9.93;;
68168;SDS011;54981;50.206;15.978;2022-07-22T01:45:13;13.20;;;11.10;;
68168;SDS011;54981;50.206;15.978;2022-07-22T01:47:38;15.05;;;10.55;;
68168;SDS011;54981;50.206;15.978;2022-07-22T01:50:05;14.13;;;10.95;;
68168;SDS011;54981;50.206;15.978;2022-07-22T01:52:32;12.85;;;10.27;;
68168;SDS011;54981;50.206;15.978;2022-07-22T01:54:57;15.10;;;11.60;;
68168;SDS011;54981;50.206;15.978;2022-07-22T01:57:23;16.73;;;10.27;;
68168;SDS011;54981;50.206;15.978;2022-07-22T01:59:48;13.35;;;11.52;;
68168;SDS011;54981;50.206;15.978;2022-07-22T02:02:13;12.57;;;10.45;;
68168;SDS011;54981;50.206;15.978;2022-07-22T02:04:39;13.23;;;10.75;;
68168;SDS011;54981;50.206;15.978;2022-07-22T02:07:04;14.88;;;11.40;;
68168;SDS011;54981;50.206;15.978;2022-07-22T02:09:29;14.90;;;11.35;;
68168;SDS011;54981;50.206;15.978;2022-07-22T02:11:55;13.77;;;11.32;;
68168;SDS011;54981;50.206;15.978;2022-07-22T02:14:20;14.82;;;11.20;;
68168;SDS011;54981;50.206;15.978;2022-07-22T02:16:46;17.25;;;12.68;;
68168;SDS011;54981;50.206;15.978;2022-07-22T02:19:11;14.98;;;11.85;;
68168;SDS011;54981;50.206;15.978;2022-07-22T02:21:37;15.32;;;11.15;;
68168;SDS011;54981;50.206;15.978;2022-07-22T02:24:03;15.32;;;10.93;;
68168;SDS011;54981;50.206;15.978;2022-07-22T02:26:28;16.13;;;11.48;;
68168;SDS011;54981;50.206;15.978;2022-07-22T02:28:54;18.10;;;10.82;;
68168;SDS011;54981;50.206;15.978;2022-07-22T02:31:19;14.77;;;11.57;;
68168;SDS011;54981;50.206;15.978;2022-07-22T02:33:45;17.23;;;10.57;;
68168;SDS011;54981;50.206;15.978;2022-07-22T02:36:11;14.10;;;11.23;;
68168;SDS011;54981;50.206;15.978;2022-07-22T02:38:37;16.38;;;11.60;;
68168;SDS011;54981;50.206;15.978;2022-07-22T02:41:02;13.95;;;11.45;;
68168;SDS011;54981;50.206;15.978;2022-07-22T02:43:28;14.07;;;11.73;;
68168;SDS011;54981;50.206;15.978;2022-07-22T02:45:53;16.25;;;11.90;;
68168;SDS011;54981;50.206;15.978;2022-07-22T02:48:19;13.75;;;10.98;;
68168;SDS011;54981;50.206;15.978;2022-07-22T02:50:45;13.85;;;11.23;;
68168;SDS011;54981;50.206;15.978;2022-07-22T02:53:11;14.30;;;12.20;;
68168;SDS011;54981;50.206;15.978;2022-07-22T02:55:37;14.23;;;10.98;;
68168;SDS011;54981;50.206;15.978;2022-07-22T02:58:06;15.30;;;11.80;;
68168;SDS011;54981;50.206;15.978;2022-07-22T03:00:34;14.32;;;12.45;;
68168;SDS011;54981;50.206;15.978;2022-07-22T03:03:00;14.70;;;11.93;;
68168;SDS011;54981;50.206;15.978;2022-07-22T03:05:25;15.65;;;12.35;;
68168;SDS011;54981;50.206;15.978;2022-07-22T03:07:51;13.55;;;12.02;;
68168;SDS011;54981;50.206;15.978;2022-07-22T03:10:16;17.30;;;12.90;;
68168;SDS011;54981;50.206;15.978;2022-07-22T03:12:42;16.08;;;12.35;;
68168;SDS011;54981;50.206;15.978;2022-07-22T03:15:07;16.52;;;12.48;;
68168;SDS011;54981;50.206;15.978;2022-07-22T03:17:34;16.25;;;12.27;;
68168;SDS011;54981;50.206;15.978;2022-07-22T03:20:01;15.43;;;12.75;;
68168;SDS011;54981;50.206;15.978;2022-07-22T03:22:28;15.70;;;12.70;;
68168;SDS011;54981;50.206;15.978;2022-07-22T03:24:54;19.35;;;12.57;;
68168;SDS011;54981;50.206;15.978;2022-07-22T03:27:19;17.33;;;12.15;;
68168;SDS011;54981;50.206;15.978;2022-07-22T03:29:44;15.93;;;12.82;;
68168;SDS011;54981;50.206;15.978;2022-07-22T03:32:10;18.63;;;12.70;;
68168;SDS011;54981;50.206;15.978;2022-07-22T03:34:35;15.13;;;12.98;;
68168;SDS011;54981;50.206;15.978;2022-07-22T03:37:00;16.00;;;13.18;;
68168;SDS011;54981;50.206;15.978;2022-07-22T03:39:26;15.40;;;13.02;;
68168;SDS011;54981;50.206;15.978;2022-07-22T03:41:51;15.50;;;13.30;;
68168;SDS011;54981;50.206;15.978;2022-07-22T03:44:16;18.00;;;13.70;;
68168;SDS011;54981;50.206;15.978;2022-07-22T03:46:42;15.63;;;13.48;;
68168;SDS011;54981;50.206;15.978;2022-07-22T03:49:07;15.52;;;13.57;;
68168;SDS011;54981;50.206;15.978;2022-07-22T03:51:33;17.95;;;13.65;;
68168;SDS011;54981;50.206;15.978;2022-07-22T03:53:58;16.00;;;13.05;;
68168;SDS011;54981;50.206;15.978;2022-07-22T03:56:24;16.80;;;12.90;;
68168;SDS011;54981;50.206;15.978;2022-07-22T03:58:49;18.98;;;14.35;;
68168;SDS011;54981;50.206;15.978;2022-07-22T04:01:14;16.73;;;13.00;;
68168;SDS011;54981;50.206;15.978;2022-07-22T04:03:40;17.60;;;13.23;;
68168;SDS011;54981;50.206;15.978;2022-07-22T04:06:05;20.30;;;14.45;;
68168;SDS011;54981;50.206;15.978;2022-07-22T04:08:31;17.38;;;12.82;;
68168;SDS011;54981;50.206;15.978;2022-07-22T04:10:57;17.35;;;14.07;;
68168;SDS011;54981;50.206;15.978;2022-07-22T04:13:22;18.95;;;14.07;;
68168;SDS011;54981;50.206;15.978;2022-07-22T04:15:47;15.82;;;13.60;;
68168;SDS011;54981;50.206;15.978;2022-07-22T04:18:13;21.23;;;14.55;;
68168;SDS011;54981;50.206;15.978;2022-07-22T04:20:40;19.15;;;14.75;;
68168;SDS011;54981;50.206;15.978;2022-07-22T04:23:05;18.85;;;15.25;;
68168;SDS011;54981;50.206;15.978;2022-07-22T04:25:31;19.17;;;15.43;;
68168;SDS011;54981;50.206;15.978;2022-07-22T04:27:56;19.20;;;15.55;;
68168;SDS011;54981;50.206;15.978;2022-07-22T04:30:22;22.75;;;16.00;;
68168;SDS011;54981;50.206;15.978;2022-07-22T04:32:47;19.50;;;15.65;;
68168;SDS011;54981;50.206;15.978;2022-07-22T04:35:12;20.73;;;16.20;;
68168;SDS011;54981;50.206;15.978;2022-07-22T04:37:38;17.23;;;14.93;;
68168;SDS011;54981;50.206;15.978;2022-07-22T04:40:04;17.95;;;14.35;;
68168;SDS011;54981;50.206;15.978;2022-07-22T04:42:29;18.35;;;14.88;;
68168;SDS011;54981;50.206;15.978;2022-07-22T04:44:55;21.52;;;15.77;;
68168;SDS011;54981;50.206;15.978;2022-07-22T04:47:20;23.83;;;15.63;;
68168;SDS011;54981;50.206;15.978;2022-07-22T04:49:45;21.25;;;14.88;;
68168;SDS011;54981;50.206;15.978;2022-07-22T04:52:11;18.42;;;15.65;;
68168;SDS011;54981;50.206;15.978;2022-07-22T04:54:36;17.50;;;14.95;;
68168;SDS011;54981;50.206;15.978;2022-07-22T04:57:02;18.15;;;14.90;;
68168;SDS011;54981;50.206;15.978;2022-07-22T04:59:27;23.00;;;15.05;;
68168;SDS011;54981;50.206;15.978;2022-07-22T05:01:52;19.63;;;14.95;;
68168;SDS011;54981;50.206;15.978;2022-07-22T05:04:18;18.55;;;14.45;;
68168;SDS011;54981;50.206;15.978;2022-07-22T05:06:43;19.10;;;15.23;;
68168;SDS011;54981;50.206;15.978;2022-07-22T05:09:08;17.52;;;14.65;;
68168;SDS011;54981;50.206;15.978;2022-07-22T05:11:34;17.55;;;14.43;;
68168;SDS011;54981;50.206;15.978;2022-07-22T05:13:59;18.60;;;14.32;;
68168;SDS011;54981;50.206;15.978;2022-07-22T05:16:25;17.65;;;14.90;;
68168;SDS011;54981;50.206;15.978;2022-07-22T05:18:50;23.85;;;16.85;;
68168;SDS011;54981;50.206;15.978;2022-07-22T05:21:15;18.50;;;14.82;;
68168;SDS011;54981;50.206;15.978;2022-07-22T05:23:41;19.25;;;14.23;;
68168;SDS011;54981;50.206;15.978;2022-07-22T05:26:07;19.35;;;15.35;;
68168;SDS011;54981;50.206;15.978;2022-07-22T05:28:33;21.40;;;15.10;;
68168;SDS011;54981;50.206;15.978;2022-07-22T05:30:58;20.08;;;14.98;;
68168;SDS011;54981;50.206;15.978;2022-07-22T05:33:24;18.63;;;13.95;;
68168;SDS011;54981;50.206;15.978;2022-07-22T05:35:49;19.70;;;15.27;;
68168;SDS011;54981;50.206;15.978;2022-07-22T05:38:14;20.77;;;16.25;;
68168;SDS011;54981;50.206;15.978;2022-07-22T05:40:40;16.50;;;14.20;;
68168;SDS011;54981;50.206;15.978;2022-07-22T05:43:05;19.98;;;14.30;;
68168;SDS011;54981;50.206;15.978;2022-07-22T05:45:31;16.85;;;14.40;;
68168;SDS011;54981;50.206;15.978;2022-07-22T05:47:56;19.48;;;15.55;;
68168;SDS011;54981;50.206;15.978;2022-07-22T05:50:21;18.98;;;15.13;;
68168;SDS011;54981;50.206;15.978;2022-07-22T05:52:47;19.35;;;16.00;;
68168;SDS011;54981;50.206;15.978;2022-07-22T05:55:12;19.15;;;15.63;;
68168;SDS011;54981;50.206;15.978;2022-07-22T05:57:38;17.65;;;15.25;;
68168;SDS011;54981;50.206;15.978;2022-07-22T06:00:03;19.73;;;14.43;;
68168;SDS011;54981;50.206;15.978;2022-07-22T06:02:30;19.17;;;16.23;;
68168;SDS011;54981;50.206;15.978;2022-07-22T06:04:56;19.50;;;16.13;;
68168;SDS011;54981;50.206;15.978;2022-07-22T06:07:21;24.67;;;16.40;;
68168;SDS011;54981;50.206;15.978;2022-07-22T06:09:46;22.63;;;16.38;;
68168;SDS011;54981;50.206;15.978;2022-07-22T06:12:12;18.85;;;15.52;;
68168;SDS011;54981;50.206;15.978;2022-07-22T06:14:37;19.60;;;14.57;;
68168;SDS011;54981;50.206;15.978;2022-07-22T06:17:03;21.15;;;14.88;;
68168;SDS011;54981;50.206;15.978;2022-07-22T06:19:28;17.80;;;15.07;;
68168;SDS011;54981;50.206;15.978;2022-07-22T06:21:54;18.00;;;14.80;;
68168;SDS011;54981;50.206;15.978;2022-07-22T06:24:20;17.85;;;15.07;;
68168;SDS011;54981;50.206;15.978;2022-07-22T06:26:45;21.05;;;15.98;;
68168;SDS011;54981;50.206;15.978;2022-07-22T06:29:11;20.55;;;15.77;;
68168;SDS011;54981;50.206;15.978;2022-07-22T06:31:37;23.80;;;16.17;;
68168;SDS011;54981;50.206;15.978;2022-07-22T06:34:02;20.90;;;16.88;;
68168;SDS011;54981;50.206;15.978;2022-07-22T06:36:33;17.13;;;15.32;;
68168;SDS011;54981;50.206;15.978;2022-07-22T06:38:59;27.52;;;16.02;;
68168;SDS011;54981;50.206;15.978;2022-07-22T06:41:25;22.83;;;16.88;;
68168;SDS011;54981;50.206;15.978;2022-07-22T06:43:51;21.75;;;17.67;;
68168;SDS011;54981;50.206;15.978;2022-07-22T06:46:16;21.58;;;16.45;;
68168;SDS011;54981;50.206;15.978;2022-07-22T06:48:42;22.52;;;15.50;;
68168;SDS011;54981;50.206;15.978;2022-07-22T06:51:07;18.52;;;15.98;;
68168;SDS011;54981;50.206;15.978;2022-07-22T06:53:33;19.67;;;15.90;;
68168;SDS011;54981;50.206;15.978;2022-07-22T06:55:59;19.73;;;15.50;;
68168;SDS011;54981;50.206;15.978;2022-07-22T06:58:24;18.70;;;16.67;;
68168;SDS011;54981;50.206;15.978;2022-07-22T07:00:49;21.27;;;15.40;;
68168;SDS011;54981;50.206;15.978;2022-07-22T07:03:15;19.85;;;15.75;;
68168;SDS011;54981;50.206;15.978;2022-07-22T07:05:40;18.48;;;15.48;;
68168;SDS011;54981;50.206;15.978;2022-07-22T07:08:06;20.45;;;15.77;;
68168;SDS011;54981;50.206;15.978;2022-07-22T07:10:31;18.00;;;15.82;;
68168;SDS011;54981;50.206;15.978;2022-07-22T07:12:57;20.42;;;16.88;;
68168;SDS011;54981;50.206;15.978;2022-07-22T07:15:24;20.42;;;15.45;;
68168;SDS011;54981;50.206;15.978;2022-07-22T07:17:50;19.17;;;15.18;;
68168;SDS011;54981;50.206;15.978;2022-07-22T07:20:19;18.25;;;15.27;;
68168;SDS011;54981;50.206;15.978;2022-07-22T07:22:45;21.25;;;15.88;;
68168;SDS011;54981;50.206;15.978;2022-07-22T07:25:10;18.73;;;15.07;;
68168;SDS011;54981;50.206;15.978;2022-07-22T07:27:36;19.50;;;15.50;;
68168;SDS011;54981;50.206;15.978;2022-07-22T07:30:03;21.52;;;16.23;;
68168;SDS011;54981;50.206;15.978;2022-07-22T07:32:29;20.70;;;15.77;;
68168;SDS011;54981;50.206;15.978;2022-07-22T07:34:54;20.20;;;15.13;;
68168;SDS011;54981;50.206;15.978;2022-07-22T07:37:20;24.88;;;16.08;;
68168;SDS011;54981;50.206;15.978;2022-07-22T07:39:45;18.42;;;15.13;;
68168;SDS011;54981;50.206;15.978;2022-07-22T07:42:11;18.25;;;15.85;;
68168;SDS011;54981;50.206;15.978;2022-07-22T07:44:36;18.02;;;14.93;;
68168;SDS011;54981;50.206;15.978;2022-07-22T07:47:02;19.33;;;15.35;;
68168;SDS011;54981;50.206;15.978;2022-07-22T07:49:28;21.73;;;15.95;;
68168;SDS011;54981;50.206;15.978;2022-07-22T07:51:53;19.50;;;15.52;;
68168;SDS011;54981;50.206;15.978;2022-07-22T07:54:19;18.40;;;14.75;;
68168;SDS011;54981;50.206;15.978;2022-07-22T07:56:45;17.75;;;15.13;;
68168;SDS011;54981;50.206;15.978;2022-07-22T07:59:10;19.05;;;14.07;;
68168;SDS011;54981;50.206;15.978;2022-07-22T08:01:36;18.02;;;15.13;;
68168;SDS011;54981;50.206;15.978;2022-07-22T08:04:01;19.08;;;14.95;;
68168;SDS011;54981;50.206;15.978;2022-07-22T08:06:27;16.67;;;13.18;;
68168;SDS011;54981;50.206;15.978;2022-07-22T08:08:52;15.77;;;14.18;;
68168;SDS011;54981;50.206;15.978;2022-07-22T08:11:17;17.70;;;13.82;;
68168;SDS011;54981;50.206;15.978;2022-07-22T08:13:43;18.33;;;13.60;;
68168;SDS011;54981;50.206;15.978;2022-07-22T08:16:09;17.83;;;13.93;;
68168;SDS011;54981;50.206;15.978;2022-07-22T08:18:34;18.60;;;13.15;;
68168;SDS011;54981;50.206;15.978;2022-07-22T08:21:00;16.52;;;14.00;;
68168;SDS011;54981;50.206;15.978;2022-07-22T08:23:25;16.90;;;13.60;;
68168;SDS011;54981;50.206;15.978;2022-07-22T08:25:51;14.10;;;11.93;;
68168;SDS011;54981;50.206;15.978;2022-07-22T08:28:16;16.08;;;11.98;;
68168;SDS011;54981;50.206;15.978;2022-07-22T08:30:41;15.77;;;12.13;;
68168;SDS011;54981;50.206;15.978;2022-07-22T08:33:07;16.13;;;12.63;;
68168;SDS011;54981;50.206;15.978;2022-07-22T08:35:34;18.23;;;12.73;;
68168;SDS011;54981;50.206;15.978;2022-07-22T08:37:59;14.85;;;12.43;;
68168;SDS011;54981;50.206;15.978;2022-07-22T08:40:24;15.63;;;12.13;;
68168;SDS011;54981;50.206;15.978;2022-07-22T08:42:51;14.38;;;12.52;;
68168;SDS011;54981;50.206;15.978;2022-07-22T08:45:17;15.68;;;11.48;;
68168;SDS011;54981;50.206;15.978;2022-07-22T08:47:43;14.75;;;11.80;;
68168;SDS011;54981;50.206;15.978;2022-07-22T08:50:10;13.00;;;10.15;;
68168;SDS011;54981;50.206;15.978;2022-07-22T08:52:36;13.30;;;10.50;;
68168;SDS011;54981;50.206;15.978;2022-07-22T08:55:04;11.95;;;9.35;;
68168;SDS011;54981;50.206;15.978;2022-07-22T08:57:32;11.20;;;8.88;;
68168;SDS011;54981;50.206;15.978;2022-07-22T08:59:58;14.00;;;9.18;;
68168;SDS011;54981;50.206;15.978;2022-07-22T09:02:25;11.20;;;8.60;;
68168;SDS011;54981;50.206;15.978;2022-07-22T09:04:56;11.77;;;9.35;;
68168;SDS011;54981;50.206;15.978;2022-07-22T09:09:57;11.60;;;9.45;;
68168;SDS011;54981;50.206;15.978;2022-07-22T09:12:24;10.57;;;8.18;;
68168;SDS011;54981;50.206;15.978;2022-07-22T09:14:53;10.50;;;7.70;;
68168;SDS011;54981;50.206;15.978;2022-07-22T09:17:30;11.45;;;7.85;;
68168;SDS011;54981;50.206;15.978;2022-07-22T09:20:01;10.63;;;8.27;;
68168;SDS011;54981;50.206;15.978;2022-07-22T09:22:30;9.48;;;7.55;;
68168;SDS011;54981;50.206;15.978;2022-07-22T09:27:47;10.85;;;8.50;;
68168;SDS011;54981;50.206;15.978;2022-07-22T09:30:15;14.00;;;7.63;;
68168;SDS011;54981;50.206;15.978;2022-07-22T09:32:42;8.80;;;7.13;;
68168;SDS011;54981;50.206;15.978;2022-07-22T09:35:08;11.38;;;8.40;;
68168;SDS011;54981;50.206;15.978;2022-07-22T09:37:35;12.02;;;8.18;;
68168;SDS011;54981;50.206;15.978;2022-07-22T09:40:15;16.17;;;8.55;;
68168;SDS011;54981;50.206;15.978;2022-07-22T09:42:48;10.30;;;7.55;;
68168;SDS011;54981;50.206;15.978;2022-07-22T09:45:22;12.27;;;7.93;;
68168;SDS011;54981;50.206;15.978;2022-07-22T09:47:49;16.30;;;8.18;;
68168;SDS011;54981;50.206;15.978;2022-07-22T09:50:15;9.38;;;7.18;;
68168;SDS011;54981;50.206;15.978;2022-07-22T09:52:49;9.20;;;7.30;;
68168;SDS011;54981;50.206;15.978;2022-07-22T09:55:17;10.95;;;7.70;;
68168;SDS011;54981;50.206;15.978;2022-07-22T09:57:45;8.85;;;7.35;;
68168;SDS011;54981;50.206;15.978;2022-07-22T10:00:12;8.52;;;6.80;;
68168;SDS011;54981;50.206;15.978;2022-07-22T10:02:41;9.65;;;6.13;;
68168;SDS011;54981;50.206;15.978;2022-07-22T10:05:11;9.35;;;6.57;;
68168;SDS011;54981;50.206;15.978;2022-07-22T10:07:38;8.30;;;5.75;;
68168;SDS011;54981;50.206;15.978;2022-07-22T10:10:06;8.93;;;6.88;;
68168;SDS011;54981;50.206;15.978;2022-07-22T10:12:32;8.30;;;6.25;;
68168;SDS011;54981;50.206;15.978;2022-07-22T10:14:58;11.50;;;6.30;;
68168;SDS011;54981;50.206;15.978;2022-07-22T10:17:25;8.27;;;6.47;;
68168;SDS011;54981;50.206;15.978;2022-07-22T10:19:50;9.25;;;6.03;;
68168;SDS011;54981;50.206;15.978;2022-07-22T10:25:03;9.00;;;6.28;;
68168;SDS011;54981;50.206;15.978;2022-07-22T10:30:37;7.75;;;5.93;;
68168;SDS011;54981;50.206;15.978;2022-07-22T10:35:32;10.68;;;6.30;;
68168;SDS011;54981;50.206;15.978;2022-07-22T10:38:00;8.20;;;6.50;;
68168;SDS011;54981;50.206;15.978;2022-07-22T10:40:28;7.95;;;5.63;;
68168;SDS011;54981;50.206;15.978;2022-07-22T10:48:07;8.50;;;6.70;;
68168;SDS011;54981;50.206;15.978;2022-07-22T10:56:06;14.55;;;7.30;;
68168;SDS011;54981;50.206;15.978;2022-07-22T10:58:52;10.25;;;7.30;;
68168;SDS011;54981;50.206;15.978;2022-07-22T11:01:23;11.43;;;7.47;;
68168;SDS011;54981;50.206;15.978;2022-07-22T11:03:50;10.43;;;7.72;;
68168;SDS011;54981;50.206;15.978;2022-07-22T11:06:27;12.20;;;7.70;;
68168;SDS011;54981;50.206;15.978;2022-07-22T11:08:58;11.52;;;7.60;;
68168;SDS011;54981;50.206;15.978;2022-07-22T11:11:41;10.02;;;7.80;;
68168;SDS011;54981;50.206;15.978;2022-07-22T11:14:27;9.82;;;6.82;;
68168;SDS011;54981;50.206;15.978;2022-07-22T11:19:23;11.98;;;7.00;;
68168;SDS011;54981;50.206;15.978;2022-07-22T11:21:52;8.57;;;6.32;;
68168;SDS011;54981;50.206;15.978;2022-07-22T11:24:19;8.13;;;6.80;;
68168;SDS011;54981;50.206;15.978;2022-07-22T11:26:47;10.40;;;6.82;;
68168;SDS011;54981;50.206;15.978;2022-07-22T11:29:27;8.38;;;6.03;;
68168;SDS011;54981;50.206;15.978;2022-07-22T11:31:53;10.63;;;6.95;;
68168;SDS011;54981;50.206;15.978;2022-07-22T11:34:20;8.32;;;6.28;;
68168;SDS011;54981;50.206;15.978;2022-07-22T11:36:46;9.73;;;6.00;;
68168;SDS011;54981;50.206;15.978;2022-07-22T11:39:13;10.77;;;6.63;;
68168;SDS011;54981;50.206;15.978;2022-07-22T11:41:40;13.45;;;6.65;;
68168;SDS011;54981;50.206;15.978;2022-07-22T11:44:05;9.88;;;7.32;;
68168;SDS011;54981;50.206;15.978;2022-07-22T11:46:35;8.90;;;6.68;;
68168;SDS011;54981;50.206;15.978;2022-07-22T11:49:02;10.20;;;7.07;;
68168;SDS011;54981;50.206;15.978;2022-07-22T11:51:29;8.68;;;6.93;;
68168;SDS011;54981;50.206;15.978;2022-07-22T11:53:55;11.05;;;7.10;;
68168;SDS011;54981;50.206;15.978;2022-07-22T11:56:21;10.05;;;6.75;;
68168;SDS011;54981;50.206;15.978;2022-07-22T11:58:47;9.05;;;7.35;;
68168;SDS011;54981;50.206;15.978;2022-07-22T12:01:21;11.02;;;7.40;;
68168;SDS011;54981;50.206;15.978;2022-07-22T12:03:49;9.30;;;6.45;;
68168;SDS011;54981;50.206;15.978;2022-07-22T12:06:17;10.90;;;6.70;;
68168;SDS011;54981;50.206;15.978;2022-07-22T12:08:44;11.10;;;7.63;;
68168;SDS011;54981;50.206;15.978;2022-07-22T12:11:14;9.48;;;7.07;;
68168;SDS011;54981;50.206;15.978;2022-07-22T12:13:47;12.20;;;6.50;;
68168;SDS011;54981;50.206;15.978;2022-07-22T12:16:29;11.43;;;6.88;;
68168;SDS011;54981;50.206;15.978;2022-07-22T12:18:59;7.85;;;6.55;;
68168;SDS011;54981;50.206;15.978;2022-07-22T12:21:36;12.35;;;7.22;;
68168;SDS011;54981;50.206;15.978;2022-07-22T12:24:15;8.68;;;6.43;;
68168;SDS011;54981;50.206;15.978;2022-07-22T12:29:18;8.68;;;6.45;;
68168;SDS011;54981;50.206;15.978;2022-07-22T12:31:52;8.98;;;7.03;;
68168;SDS011;54981;50.206;15.978;2022-07-22T12:34:29;12.57;;;6.97;;
68168;SDS011;54981;50.206;15.978;2022-07-22T12:36:59;11.75;;;6.70;;
68168;SDS011;54981;50.206;15.978;2022-07-22T12:39:35;11.70;;;7.18;;
68168;SDS011;54981;50.206;15.978;2022-07-22T12:42:00;9.45;;;6.35;;
68168;SDS011;54981;50.206;15.978;2022-07-22T12:44:26;14.05;;;6.63;;
68168;SDS011;54981;50.206;15.978;2022-07-22T12:46:55;11.63;;;6.80;;
68168;SDS011;54981;50.206;15.978;2022-07-22T12:49:22;9.80;;;6.68;;
68168;SDS011;54981;50.206;15.978;2022-07-22T12:52:08;9.30;;;6.32;;
68168;SDS011;54981;50.206;15.978;2022-07-22T12:54:34;9.73;;;6.82;;
68168;SDS011;54981;50.206;15.978;2022-07-22T12:57:00;8.88;;;6.85;;
68168;SDS011;54981;50.206;15.978;2022-07-22T12:59:26;10.07;;;7.20;;
68168;SDS011;54981;50.206;15.978;2022-07-22T13:01:51;8.73;;;6.43;;
68168;SDS011;54981;50.206;15.978;2022-07-22T13:04:17;11.27;;;6.68;;
68168;SDS011;54981;50.206;15.978;2022-07-22T13:06:42;13.03;;;7.07;;
68168;SDS011;54981;50.206;15.978;2022-07-22T13:09:07;8.45;;;7.18;;
68168;SDS011;54981;50.206;15.978;2022-07-22T13:11:33;7.97;;;6.77;;
68168;SDS011;54981;50.206;15.978;2022-07-22T13:14:04;13.80;;;7.57;;
68168;SDS011;54981;50.206;15.978;2022-07-22T13:16:29;11.27;;;7.57;;
68168;SDS011;54981;50.206;15.978;2022-07-22T13:18:55;9.30;;;7.05;;
68168;SDS011;54981;50.206;15.978;2022-07-22T13:21:20;9.65;;;6.97;;
68168;SDS011;54981;50.206;15.978;2022-07-22T13:23:45;12.43;;;7.13;;
68168;SDS011;54981;50.206;15.978;2022-07-22T13:26:11;8.50;;;7.13;;
68168;SDS011;54981;50.206;15.978;2022-07-22T13:28:36;11.27;;;7.20;;
68168;SDS011;54981;50.206;15.978;2022-07-22T13:31:01;10.30;;;7.28;;
68168;SDS011;54981;50.206;15.978;2022-07-22T13:33:27;9.73;;;6.90;;
68168;SDS011;54981;50.206;15.978;2022-07-22T13:35:52;10.77;;;7.20;;
68168;SDS011;54981;50.206;15.978;2022-07-22T13:38:17;10.25;;;7.15;;
68168;SDS011;54981;50.206;15.978;2022-07-22T13:40:43;11.80;;;7.55;;
68168;SDS011;54981;50.206;15.978;2022-07-22T13:43:16;12.65;;;7.90;;
68168;SDS011;54981;50.206;15.978;2022-07-22T13:45:42;13.65;;;7.97;;
68168;SDS011;54981;50.206;15.978;2022-07-22T13:48:07;11.63;;;8.13;;
68168;SDS011;54981;50.206;15.978;2022-07-22T13:50:33;11.63;;;7.13;;
68168;SDS011;54981;50.206;15.978;2022-07-22T13:52:58;9.67;;;6.90;;
68168;SDS011;54981;50.206;15.978;2022-07-22T13:55:24;12.18;;;7.68;;
68168;SDS011;54981;50.206;15.978;2022-07-22T13:57:50;10.95;;;6.72;;
68168;SDS011;54981;50.206;15.978;2022-07-22T14:00:15;11.13;;;7.43;;
68168;SDS011;54981;50.206;15.978;2022-07-22T14:02:42;11.48;;;7.43;;
68168;SDS011;54981;50.206;15.978;2022-07-22T14:05:09;10.52;;;7.55;;
68168;SDS011;54981;50.206;15.978;2022-07-22T14:07:35;11.10;;;7.00;;
68168;SDS011;54981;50.206;15.978;2022-07-22T14:10:00;11.07;;;7.05;;
68168;SDS011;54981;50.206;15.978;2022-07-22T14:12:26;9.02;;;6.85;;
68168;SDS011;54981;50.206;15.978;2022-07-22T14:14:51;9.77;;;6.95;;
68168;SDS011;54981;50.206;15.978;2022-07-22T14:17:17;9.93;;;6.68;;
68168;SDS011;54981;50.206;15.978;2022-07-22T14:19:42;11.43;;;7.30;;
68168;SDS011;54981;50.206;15.978;2022-07-22T14:22:08;8.73;;;6.33;;
68168;SDS011;54981;50.206;15.978;2022-07-22T14:24:33;10.48;;;7.80;;
68168;SDS011;54981;50.206;15.978;2022-07-22T14:26:58;10.50;;;7.37;;
68168;SDS011;54981;50.206;15.978;2022-07-22T14:29:24;10.75;;;7.57;;
68168;SDS011;54981;50.206;15.978;2022-07-22T14:31:49;10.18;;;7.32;;
68168;SDS011;54981;50.206;15.978;2022-07-22T14:34:15;9.75;;;7.53;;
68168;SDS011;54981;50.206;15.978;2022-07-22T14:36:40;9.82;;;7.25;;
68168;SDS011;54981;50.206;15.978;2022-07-22T14:39:06;9.88;;;6.93;;
68168;SDS011;54981;50.206;15.978;2022-07-22T14:41:31;8.98;;;7.03;;
68168;SDS011;54981;50.206;15.978;2022-07-22T14:43:57;11.13;;;7.40;;
68168;SDS011;54981;50.206;15.978;2022-07-22T14:46:22;8.48;;;7.25;;